createdAt,value
2023-05-22T00:00:34.216Z,19.80
2023-05-22T00:03:25.857Z,19.50
2023-05-22T00:06:20.548Z,19.70
2023-05-22T00:12:00.439Z,19.50
2023-05-22T00:14:36.348Z,19.40
2023-05-22T00:17:19.806Z,19.30
2023-05-22T00:20:28.319Z,19.30
2023-05-22T00:26:20.359Z,19.20
2023-05-22T00:29:17.160Z,19.20
2023-05-22T00:35:31.544Z,19.10
2023-05-22T00:38:11.163Z,19.00
2023-05-22T00:40:47.010Z,19.00
2023-05-22T00:43:28.380Z,18.90
2023-05-22T00:46:12.243Z,18.90
2023-05-22T00:49:03.184Z,18.90
2023-05-22T00:51:33.521Z,18.90
2023-05-22T00:54:02.237Z,18.80
2023-05-22T00:56:30.812Z,18.70
2023-05-22T00:59:00.372Z,18.70
2023-05-22T01:01:33.457Z,18.70
2023-05-22T01:04:08.101Z,18.70
2023-05-22T01:06:41.442Z,18.60
2023-05-22T01:09:09.809Z,18.60
2023-05-22T01:11:44.241Z,18.50
2023-05-22T01:14:31.758Z,18.50
2023-05-22T01:17:09.069Z,18.50
2023-05-22T01:20:10.297Z,18.40
2023-05-22T01:23:13.867Z,18.40
2023-05-22T01:26:14.749Z,18.30
2023-05-22T01:29:09.070Z,18.20
2023-05-22T01:31:47.457Z,18.20
2023-05-22T01:34:33.567Z,18.20
2023-05-22T01:37:08.175Z,18.20
2023-05-22T01:39:49.838Z,18.20
2023-05-22T01:42:41.397Z,18.50
2023-05-22T01:45:20.884Z,18.20
2023-05-22T01:48:12.063Z,18.10
2023-05-22T01:50:59.717Z,18.10
2023-05-22T01:53:45.982Z,17.90
2023-05-22T01:56:31.424Z,18.00
2023-05-22T01:59:24.058Z,18.00
2023-05-22T02:02:23.713Z,18.00
2023-05-22T02:05:11.294Z,18.00
2023-05-22T02:07:53.678Z,17.90
2023-05-22T02:10:29.101Z,17.90
2023-05-22T02:13:00.884Z,17.80
2023-05-22T02:15:29.444Z,17.80
2023-05-22T02:18:02.079Z,17.80
2023-05-22T02:20:32.145Z,17.70
2023-05-22T02:23:00.526Z,17.70
2023-05-22T02:25:29.114Z,17.70
2023-05-22T02:27:57.891Z,17.60
2023-05-22T02:30:27.173Z,17.70
2023-05-22T02:32:58.494Z,17.60
2023-05-22T02:35:27.065Z,17.60
2023-05-22T02:37:57.483Z,17.50
2023-05-22T02:40:26.208Z,17.50
2023-05-22T02:42:54.487Z,17.40
2023-05-22T02:45:25.256Z,17.40
2023-05-22T02:47:55.979Z,17.40
2023-05-22T02:50:24.482Z,17.40
2023-05-22T02:52:52.991Z,17.40
2023-05-22T02:55:22.992Z,17.40
2023-05-22T02:57:51.304Z,17.40
2023-05-22T03:00:22.620Z,17.40
2023-05-22T03:02:51.408Z,17.30
2023-05-22T03:05:19.845Z,17.30
2023-05-22T03:07:49.067Z,17.20
2023-05-22T03:10:18.107Z,17.30
2023-05-22T03:12:48.115Z,17.30
2023-05-22T03:15:16.916Z,17.30
2023-05-22T03:17:46.191Z,17.30
2023-05-22T03:20:16.772Z,17.40
2023-05-22T03:22:45.798Z,17.30
2023-05-22T03:25:14.651Z,17.30
2023-05-22T03:27:43.008Z,17.30
2023-05-22T03:30:14.284Z,17.30
2023-05-22T03:32:49.638Z,17.30
2023-05-22T03:35:20.717Z,17.30
2023-05-22T03:37:49.091Z,17.30
2023-05-22T03:40:17.820Z,17.30
2023-05-22T03:42:46.165Z,17.30
2023-05-22T03:45:16.178Z,17.30
2023-05-22T03:47:44.867Z,17.30
2023-05-22T03:50:13.340Z,17.30
2023-05-22T03:52:41.667Z,17.30
2023-05-22T03:55:10.853Z,17.20
2023-05-22T03:57:39.331Z,17.40
2023-05-22T04:00:10.225Z,17.40
2023-05-22T04:02:45.273Z,17.40
2023-05-22T04:05:14.671Z,17.40
2023-05-22T04:07:43.721Z,17.50
2023-05-22T04:10:13.104Z,17.50
2023-05-22T04:12:41.406Z,17.50
2023-05-22T04:15:10.618Z,17.60
2023-05-22T04:17:42.651Z,17.60
2023-05-22T04:20:12.257Z,17.60
2023-05-22T04:22:41.220Z,17.70
2023-05-22T04:25:14.197Z,17.50
2023-05-22T04:27:42.520Z,17.80
2023-05-22T04:30:14.421Z,17.80
2023-05-22T04:32:46.557Z,17.80
2023-05-22T04:35:18.482Z,17.90
2023-05-22T04:37:46.799Z,18.10
2023-05-22T04:40:15.528Z,18.00
2023-05-22T04:42:44.631Z,18.10
2023-05-22T04:45:15.219Z,18.20
2023-05-22T04:47:43.589Z,18.20
2023-05-22T04:50:14.548Z,18.20
2023-05-22T04:52:43.220Z,18.30
2023-05-22T04:55:22.153Z,18.40
2023-05-22T04:57:52.794Z,18.50
2023-05-22T05:00:26.416Z,18.60
2023-05-22T05:03:19.809Z,18.70
2023-05-22T05:05:50.647Z,18.80
2023-05-22T05:08:20.603Z,18.90
2023-05-22T05:10:49.108Z,19.00
2023-05-22T05:13:17.637Z,19.10
2023-05-22T05:15:49.251Z,19.10
2023-05-22T05:18:21.798Z,19.20
2023-05-22T05:20:51.730Z,19.30
2023-05-22T05:23:20.211Z,19.40
2023-05-22T05:32:42.102Z,19.60
2023-05-22T05:41:21.787Z,19.90
2023-05-22T06:12:22.292Z,20.70
2023-05-22T06:30:41.902Z,21.30
2023-05-22T06:58:35.163Z,22.30
2023-05-22T07:05:14.671Z,22.50
2023-05-22T09:28:30.558Z,30.00
2023-05-22T09:31:13.968Z,30.10
2023-05-22T09:33:52.413Z,30.30
2023-05-22T09:36:20.895Z,30.30
2023-05-22T09:38:49.461Z,30.40
2023-05-22T09:41:23.387Z,30.50
2023-05-22T09:43:55.951Z,30.30
2023-05-22T09:46:24.461Z,30.50
2023-05-22T09:49:02.647Z,30.60
2023-05-22T09:51:35.380Z,30.70
2023-05-22T09:54:06.877Z,30.60
2023-05-22T09:56:39.923Z,30.80
2023-05-22T09:59:33.525Z,30.80
2023-05-22T10:02:05.050Z,30.70
2023-05-22T10:04:34.882Z,30.90
2023-05-22T10:07:13.065Z,30.90
2023-05-22T10:09:43.490Z,30.90
2023-05-22T10:12:18.197Z,30.80
2023-05-22T10:14:55.379Z,30.70
2023-05-22T10:42:28.564Z,29.90
2023-05-22T11:27:36.829Z,31.30
2023-05-22T11:30:24.476Z,31.80
2023-05-22T11:33:06.380Z,32.30
2023-05-22T11:36:01.120Z,32.80
2023-05-22T11:38:47.995Z,33.40
2023-05-22T11:41:43.002Z,33.80
2023-05-22T11:48:53.418Z,34.30
2023-05-22T11:51:29.676Z,35.20
2023-05-22T11:54:37.042Z,36.20
2023-05-22T14:13:30.237Z,44.80
2023-05-22T14:16:09.803Z,44.90
2023-05-22T14:18:57.328Z,44.90
2023-05-22T14:44:11.384Z,43.50
2023-05-22T14:47:19.577Z,42.90
2023-05-22T14:50:19.189Z,42.70
2023-05-22T14:53:24.948Z,42.70
2023-05-22T14:56:04.690Z,42.70
2023-05-22T14:58:51.234Z,42.70
2023-05-22T15:02:25.065Z,43.10
2023-05-22T15:05:29.593Z,43.00
2023-05-22T15:08:41.297Z,43.00
2023-05-22T15:11:54.915Z,42.50
2023-05-22T15:14:23.360Z,42.30
2023-05-22T15:16:51.546Z,42.10
2023-05-22T15:19:19.796Z,41.80
2023-05-22T15:21:49.569Z,41.50
2023-05-22T15:24:17.984Z,41.50
2023-05-22T15:26:46.651Z,41.10
2023-05-22T15:29:14.917Z,40.90
2023-05-22T15:31:43.137Z,40.70
2023-05-22T15:34:11.378Z,40.60
2023-05-22T15:36:40.410Z,40.50
2023-05-22T15:39:10.114Z,40.30
2023-05-22T15:41:38.389Z,40.30
2023-05-22T15:44:10.457Z,40.20
2023-05-22T15:46:38.878Z,39.90
2023-05-22T15:49:09.551Z,39.60
2023-05-22T15:51:38.388Z,39.20
2023-05-22T15:54:09.447Z,38.70
2023-05-22T15:56:41.743Z,38.30
2023-05-22T15:59:12.372Z,37.90
2023-05-22T16:01:40.884Z,37.40
2023-05-22T16:04:09.169Z,36.90
2023-05-22T16:06:38.597Z,36.30
2023-05-22T16:09:07.334Z,35.90
2023-05-22T16:11:37.709Z,35.70
2023-05-22T16:14:07.525Z,35.60
2023-05-22T16:16:35.894Z,35.50
2023-05-22T16:19:04.384Z,35.60
2023-05-22T16:21:37.043Z,35.50
2023-05-22T16:24:08.825Z,35.40
2023-05-22T16:26:41.820Z,35.60
2023-05-22T16:29:11.828Z,35.30
2023-05-22T16:31:40.357Z,35.20
2023-05-22T16:34:08.704Z,35.30
2023-05-22T16:36:37.124Z,35.40
2023-05-22T16:39:06.409Z,35.40
2023-05-22T16:41:38.104Z,35.40
2023-05-22T16:44:06.641Z,35.60
2023-05-22T16:46:36.411Z,35.70
2023-05-22T16:49:05.419Z,35.60
2023-05-22T16:51:34.163Z,35.50
2023-05-22T16:54:02.823Z,35.40
2023-05-22T16:56:34.524Z,35.20
2023-05-22T16:59:03.843Z,35.00
2023-05-22T17:01:33.501Z,34.90
2023-05-22T17:04:30.524Z,34.40
2023-05-22T17:07:06.927Z,34.70
2023-05-22T17:09:35.767Z,34.40
2023-05-22T17:12:09.360Z,34.10
2023-05-22T17:15:14.494Z,33.80
2023-05-22T17:17:43.432Z,33.60
2023-05-22T17:20:22.451Z,33.20
2023-05-22T17:23:33.957Z,32.80
2023-05-22T17:26:09.308Z,32.20
2023-05-22T17:28:41.044Z,31.70
2023-05-22T17:31:11.959Z,31.30
2023-05-22T17:34:08.327Z,30.90
2023-05-22T17:36:45.041Z,30.40
2023-05-22T17:39:16.936Z,30.10
2023-05-22T17:41:55.101Z,29.80
2023-05-22T17:44:24.797Z,29.20
2023-05-22T17:47:06.417Z,29.20
2023-05-22T17:49:35.177Z,29.10
2023-05-22T17:52:12.200Z,28.70
2023-05-22T17:54:46.658Z,28.70
2023-05-22T17:57:21.766Z,28.50
2023-05-22T18:00:16.856Z,28.30
2023-05-22T18:02:48.068Z,28.00
2023-05-22T18:05:21.902Z,28.10
2023-05-22T18:07:56.804Z,28.00
2023-05-22T18:10:30.698Z,28.00
2023-05-22T18:13:01.641Z,27.90
2023-05-22T18:15:35.725Z,28.00
2023-05-22T18:18:11.355Z,27.60
2023-05-22T18:20:41.240Z,27.50
2023-05-22T18:23:17.626Z,27.30
2023-05-22T18:25:48.268Z,27.10
2023-05-22T18:28:33.010Z,27.10
2023-05-22T18:31:05.864Z,26.90
2023-05-22T18:33:43.268Z,26.80
2023-05-22T18:36:23.118Z,26.70
2023-05-22T18:38:55.515Z,26.50
2023-05-22T18:41:28.437Z,26.40
2023-05-22T18:43:59.873Z,26.20
2023-05-22T18:46:30.354Z,26.10
2023-05-22T18:49:01.892Z,26.10
2023-05-22T18:51:37.286Z,26.00
2023-05-22T18:54:18.094Z,25.90
2023-05-22T18:56:58.491Z,25.70
2023-05-22T18:59:32.694Z,25.60
2023-05-22T19:02:06.908Z,25.40
2023-05-22T19:04:48.089Z,25.40
2023-05-22T19:07:27.719Z,25.30
2023-05-22T19:10:16.048Z,25.20
2023-05-22T19:12:47.655Z,25.20
2023-05-22T19:15:40.425Z,25.00
2023-05-22T19:18:09.703Z,25.00
2023-05-22T19:20:41.068Z,24.80
2023-05-22T19:23:15.639Z,24.80
2023-05-22T19:26:02.658Z,24.70
2023-05-22T19:28:34.070Z,24.60
2023-05-22T19:31:03.313Z,24.50
2023-05-22T19:33:34.889Z,24.50
2023-05-22T19:36:03.281Z,24.40
2023-05-22T19:38:33.911Z,24.30
2023-05-22T19:41:05.853Z,24.20
2023-05-22T19:43:36.987Z,24.20
2023-05-22T19:46:09.291Z,24.20
2023-05-22T19:48:46.510Z,24.00
2023-05-22T19:51:28.810Z,24.10
2023-05-22T19:54:00.451Z,24.10
2023-05-22T19:56:31.525Z,23.90
2023-05-22T19:58:59.859Z,23.90
2023-05-22T20:04:31.885Z,23.70
2023-05-22T20:09:48.168Z,23.40
2023-05-22T20:12:18.107Z,23.50
2023-05-22T20:14:51.821Z,23.40
2023-05-22T20:17:22.817Z,23.40
2023-05-22T20:19:54.232Z,23.40
2023-05-22T20:22:23.873Z,23.30
2023-05-22T20:24:55.313Z,23.20
2023-05-22T20:27:28.151Z,23.20
2023-05-22T20:29:59.295Z,23.20
2023-05-22T20:32:30.458Z,23.10
2023-05-22T20:34:58.855Z,23.10
2023-05-22T20:37:27.656Z,22.90
2023-05-22T20:39:56.346Z,22.90
2023-05-22T20:42:26.314Z,22.80
2023-05-22T20:45:01.469Z,22.80
2023-05-22T20:47:30.131Z,22.80
2023-05-22T20:50:00.522Z,22.70
2023-05-22T20:52:31.358Z,22.70
2023-05-22T20:54:59.762Z,22.60
2023-05-22T20:57:29.931Z,22.60
2023-05-22T20:59:59.696Z,22.50
2023-05-22T21:02:33.056Z,22.50
2023-05-22T21:05:01.606Z,22.50
2023-05-22T21:07:30.005Z,22.50
2023-05-22T21:10:01.688Z,22.40
2023-05-22T21:12:32.878Z,22.40
2023-05-22T21:15:01.258Z,22.40
2023-05-22T21:17:29.571Z,22.30
2023-05-22T21:20:02.641Z,22.20
2023-05-22T21:22:34.671Z,22.30
2023-05-22T21:25:06.093Z,22.20
2023-05-22T21:27:36.022Z,22.10
2023-05-22T21:30:04.570Z,22.10
2023-05-22T21:32:33.193Z,22.10
2023-05-22T21:35:03.447Z,22.10
2023-05-22T21:37:35.112Z,22.00
2023-05-22T21:40:03.672Z,21.90
2023-05-22T21:42:45.052Z,22.00
2023-05-22T21:45:21.700Z,21.90
2023-05-22T21:47:56.232Z,21.90
2023-05-22T21:50:33.311Z,21.80
2023-05-22T21:53:02.015Z,21.80
2023-05-22T21:55:30.854Z,21.80
2023-05-22T21:57:59.342Z,21.80
2023-05-22T22:00:29.910Z,21.80
2023-05-22T22:02:58.444Z,21.80
2023-05-22T22:05:27.798Z,21.80
2023-05-22T22:07:59.812Z,21.80
2023-05-22T22:10:28.349Z,21.80
2023-05-22T22:15:59.472Z,21.80
2023-05-22T22:18:28.122Z,21.80
2023-05-22T22:20:56.650Z,21.90
2023-05-22T22:23:25.144Z,21.80
2023-05-22T22:25:53.524Z,21.80
2023-05-22T22:28:22.070Z,21.80
2023-05-22T22:30:51.026Z,21.70
2023-05-22T22:33:20.959Z,21.70
2023-05-22T22:35:52.081Z,21.60
2023-05-22T22:38:20.585Z,21.60
2023-05-22T22:40:48.839Z,21.60
2023-05-22T22:43:17.249Z,21.60
2023-05-22T22:45:56.127Z,21.60
2023-05-22T22:48:25.881Z,21.90
2023-05-22T22:50:58.535Z,21.60
2023-05-22T22:53:33.044Z,21.60
2023-05-22T22:56:05.183Z,21.50
2023-05-22T22:58:36.998Z,21.50
2023-05-22T23:01:05.640Z,21.40
2023-05-22T23:03:37.358Z,21.30
2023-05-22T23:06:06.442Z,21.30
2023-05-22T23:08:38.587Z,21.30
2023-05-22T23:11:07.389Z,21.30
2023-05-22T23:13:43.404Z,21.30
2023-05-22T23:16:25.998Z,21.20
2023-05-22T23:18:55.972Z,21.20
2023-05-22T23:21:26.721Z,21.20
2023-05-22T23:23:55.002Z,21.10
2023-05-22T23:26:26.222Z,21.10
2023-05-22T23:28:54.748Z,21.10
2023-05-22T23:31:28.496Z,21.00
2023-05-22T23:34:01.938Z,21.00
2023-05-22T23:36:31.027Z,21.00
2023-05-22T23:38:59.368Z,21.10
2023-05-22T23:41:37.158Z,21.00
2023-05-22T23:44:05.653Z,21.10
2023-05-22T23:46:34.101Z,21.10
2023-05-22T23:49:03.933Z,21.10
2023-05-22T23:51:34.761Z,21.10
2023-05-22T23:54:03.092Z,21.20
2023-05-22T23:56:32.110Z,21.20
2023-05-22T23:59:00.659Z,21.20
